createdAt,value
2019-05-09T01:03:03.430Z,10.54
2019-05-09T01:05:34.263Z,10.31
2019-05-09T01:08:06.210Z,10.38
2019-05-09T01:10:37.104Z,10.23
2019-05-09T01:13:08.024Z,10.28
2019-05-09T01:15:38.872Z,10.36
2019-05-09T01:18:09.764Z,10.35
2019-05-09T01:20:40.661Z,10.40
2019-05-09T01:23:11.342Z,10.42
2019-05-09T01:25:43.600Z,10.31
2019-05-09T01:28:14.550Z,10.20
2019-05-09T01:30:45.373Z,10.35
2019-05-09T01:33:35.112Z,10.38
2019-05-09T01:36:06.046Z,10.35
2019-05-09T01:38:36.833Z,10.28
2019-05-09T01:41:07.599Z,10.33
2019-05-09T01:43:38.336Z,10.40
2019-05-09T01:46:09.069Z,10.38
2019-05-09T01:48:39.873Z,10.30
2019-05-09T01:51:10.640Z,10.25
2019-05-09T01:53:46.949Z,10.26
2019-05-09T01:56:17.748Z,10.28
2019-05-09T01:58:48.674Z,10.23
2019-05-09T02:01:19.416Z,10.33
2019-05-09T02:03:50.253Z,10.39
2019-05-09T02:06:21.295Z,10.26
2019-05-09T02:08:54.267Z,10.40
2019-05-09T02:11:38.420Z,10.37
2019-05-09T02:13:56.836Z,10.36
2019-05-09T02:16:45.404Z,10.54
2019-05-09T02:19:24.135Z,10.66
2019-05-09T02:21:55.056Z,10.84
2019-05-09T02:24:25.951Z,10.85
2019-05-09T02:26:56.932Z,10.91
2019-05-09T02:29:27.829Z,10.94
2019-05-09T02:31:58.635Z,10.87
2019-05-09T02:34:29.477Z,10.79
2019-05-09T02:37:00.276Z,10.80
2019-05-09T02:39:31.151Z,10.88
2019-05-09T02:42:09.347Z,10.83
2019-05-09T02:44:34.509Z,10.90
2019-05-09T02:47:10.554Z,10.89
2019-05-09T02:49:41.444Z,10.85
2019-05-09T02:52:12.264Z,10.83
2019-05-09T02:54:43.022Z,10.76
2019-05-09T02:57:13.889Z,10.67
2019-05-09T03:00:01.400Z,10.68
2019-05-09T03:02:40.795Z,10.70
2019-05-09T03:05:12.226Z,10.77
2019-05-09T03:07:52.362Z,10.78
2019-05-09T03:10:23.865Z,10.78
2019-05-09T03:12:54.752Z,10.71
2019-05-09T03:15:28.810Z,10.64
2019-05-09T03:18:00.005Z,10.51
2019-05-09T03:21:05.107Z,10.40
2019-05-09T03:23:38.815Z,10.27
2019-05-09T03:26:10.026Z,10.03
2019-05-09T03:28:59.305Z,9.96
2019-05-09T03:31:31.388Z,9.74
2019-05-09T03:34:02.335Z,9.68
2019-05-09T03:36:33.174Z,9.56
2019-05-09T03:39:08.052Z,9.61
2019-05-09T03:41:39.503Z,9.55
2019-05-09T03:44:10.524Z,9.56
2019-05-09T03:46:53.751Z,9.56
2019-05-09T03:49:24.695Z,9.58
2019-05-09T03:51:55.499Z,9.54
2019-05-09T03:54:28.335Z,9.57
2019-05-09T03:57:04.571Z,9.59
2019-05-09T03:59:38.094Z,9.64
2019-05-09T04:02:10.346Z,9.63
2019-05-09T04:04:41.480Z,9.62
2019-05-09T04:07:12.217Z,9.69
2019-05-09T04:09:43.129Z,9.65
2019-05-09T04:12:13.961Z,9.60
2019-05-09T04:14:44.719Z,9.60
2019-05-09T04:20:40.608Z,9.64
2019-05-09T04:23:11.267Z,9.73
2019-05-09T04:25:58.353Z,9.76
2019-05-09T04:28:29.337Z,9.79
2019-05-09T04:31:00.275Z,9.92
2019-05-09T04:33:31.096Z,10.10
2019-05-09T04:36:02.049Z,10.28
2019-05-09T04:38:32.846Z,10.54
2019-05-09T04:41:03.565Z,10.72
2019-05-09T04:43:37.481Z,10.75
2019-05-09T04:46:12.854Z,10.65
2019-05-09T04:48:41.106Z,10.75
2019-05-09T04:51:11.765Z,10.81
2019-05-09T04:53:42.500Z,10.72
2019-05-09T04:56:21.617Z,10.86
2019-05-09T04:58:52.167Z,10.92
2019-05-09T05:01:40.891Z,11.07
2019-05-09T05:04:12.052Z,11.22
2019-05-09T05:06:42.909Z,11.48
2019-05-09T05:09:13.665Z,11.71
2019-05-09T05:11:49.108Z,11.68
2019-05-09T05:14:22.921Z,11.83
2019-05-09T05:17:03.211Z,11.87
2019-05-09T05:19:31.151Z,11.95
2019-05-09T05:22:08.129Z,11.99
2019-05-09T05:24:48.752Z,12.04
2019-05-09T05:27:19.094Z,12.03
2019-05-09T05:29:50.800Z,12.04
2019-05-09T05:32:30.213Z,12.09
2019-05-09T05:35:19.869Z,12.24
2019-05-09T05:37:50.903Z,12.22
2019-05-09T05:40:21.858Z,12.36
2019-05-09T05:42:52.670Z,12.35
2019-05-09T05:45:24.512Z,12.38
2019-05-09T05:47:58.554Z,12.41
2019-05-09T05:50:29.574Z,12.41
2019-05-09T05:53:00.180Z,12.52
2019-05-09T05:55:30.855Z,12.56
2019-05-09T05:58:01.756Z,12.61
2019-05-09T06:00:32.651Z,12.74
2019-05-09T06:03:03.349Z,12.98
2019-05-09T06:05:34.190Z,13.09
2019-05-09T06:08:08.202Z,13.22
2019-05-09T06:10:38.806Z,13.25
2019-05-09T06:13:09.685Z,13.34
2019-05-09T06:15:40.610Z,13.33
2019-05-09T06:18:11.438Z,13.32
2019-05-09T06:20:45.441Z,13.25
2019-05-09T06:23:14.580Z,13.11
2019-05-09T06:25:48.252Z,13.11
2019-05-09T06:28:18.323Z,13.07
2019-05-09T06:30:49.230Z,12.97
2019-05-09T06:33:19.956Z,12.94
2019-05-09T06:35:50.673Z,12.82
2019-05-09T06:38:21.658Z,12.68
2019-05-09T06:40:52.419Z,12.38
2019-05-09T06:43:25.649Z,12.28
2019-05-09T06:46:14.277Z,12.35
2019-05-09T06:48:45.099Z,12.10
2019-05-09T06:51:20.432Z,12.01
2019-05-09T06:53:48.828Z,12.16
2019-05-09T06:56:20.898Z,12.09
2019-05-09T06:58:51.645Z,12.06
2019-05-09T07:01:37.572Z,12.06
2019-05-09T07:04:21.079Z,12.07
2019-05-09T07:06:59.322Z,12.17
2019-05-09T07:09:33.566Z,12.38
2019-05-09T07:12:04.406Z,12.53
2019-05-09T07:14:39.134Z,12.43
2019-05-09T07:17:09.252Z,12.66
2019-05-09T07:19:43.560Z,12.70
2019-05-09T07:22:23.153Z,12.59
2019-05-09T07:25:06.424Z,12.69
2019-05-09T07:27:35.868Z,12.75
2019-05-09T07:30:23.749Z,12.69
2019-05-09T07:33:04.801Z,12.64
2019-05-09T07:35:38.010Z,12.72
2019-05-09T07:38:08.665Z,12.68
2019-05-09T07:40:39.707Z,12.79
2019-05-09T07:43:10.580Z,12.96
2019-05-09T07:46:00.231Z,12.90
2019-05-09T07:48:30.968Z,13.17
2019-05-09T07:51:02.786Z,13.21
2019-05-09T07:53:33.562Z,13.21
2019-05-09T07:56:04.288Z,13.16
2019-05-09T07:58:37.521Z,13.33
2019-05-09T08:01:08.571Z,13.48
2019-05-09T08:03:39.733Z,13.73
2019-05-09T08:06:10.749Z,13.74
2019-05-09T08:08:41.513Z,13.63
2019-05-09T08:11:12.209Z,13.65
2019-05-09T08:13:42.941Z,13.83
2019-05-09T08:16:14.759Z,13.98
2019-05-09T08:18:48.157Z,14.03
2019-05-09T08:21:19.178Z,14.22
2019-05-09T08:23:50.025Z,14.42
2019-05-09T08:26:20.809Z,14.64
2019-05-09T08:28:51.681Z,14.82
2019-05-09T08:31:22.599Z,14.92
2019-05-09T08:33:53.397Z,14.97
2019-05-09T08:36:24.162Z,15.18
2019-05-09T08:38:55.074Z,15.04
2019-05-09T08:41:28.749Z,15.19
2019-05-09T08:43:58.397Z,15.02
2019-05-09T08:46:29.112Z,14.92
2019-05-09T08:48:59.885Z,14.94
2019-05-09T08:52:15.486Z,15.00
2019-05-09T08:54:45.239Z,15.03
2019-05-09T08:57:18.055Z,14.96
2019-05-09T08:59:50.735Z,15.06
2019-05-09T09:02:22.368Z,15.20
2019-05-09T09:04:53.579Z,15.16
2019-05-09T09:07:24.272Z,15.28
2019-05-09T09:09:57.580Z,15.13
2019-05-09T09:12:34.066Z,15.13
2019-05-09T09:15:00.066Z,14.78
2019-05-09T09:17:30.681Z,14.76
2019-05-09T09:20:01.481Z,14.72
2019-05-09T09:22:32.284Z,14.84
2019-05-09T09:25:03.805Z,14.89
2019-05-09T09:27:34.609Z,14.93
2019-05-09T09:30:19.974Z,15.17
2019-05-09T09:32:38.864Z,15.20
2019-05-09T09:35:10.954Z,15.30
2019-05-09T09:37:48.339Z,15.36
2019-05-09T09:40:14.875Z,15.40
2019-05-09T09:42:45.776Z,15.67
2019-05-09T09:45:18.429Z,15.70
2019-05-09T09:47:49.332Z,15.76
2019-05-09T09:50:20.280Z,15.95
2019-05-09T09:52:51.111Z,15.72
2019-05-09T09:55:22.048Z,15.62
2019-05-09T09:57:53.596Z,15.37
2019-05-09T10:01:14.745Z,15.39
2019-05-09T10:03:47.386Z,15.40
2019-05-09T10:06:18.415Z,15.21
2019-05-09T10:08:49.164Z,15.04
2019-05-09T10:11:19.885Z,15.12
2019-05-09T10:13:52.040Z,15.16
2019-05-09T10:16:55.205Z,15.08
2019-05-09T10:19:34.139Z,15.10
2019-05-09T10:22:08.295Z,14.89
2019-05-09T10:24:38.420Z,14.88
2019-05-09T10:27:11.077Z,14.95
2019-05-09T10:29:41.788Z,15.07
2019-05-09T10:32:13.961Z,15.03
2019-05-09T10:34:44.801Z,15.10
2019-05-09T10:37:18.326Z,15.23
2019-05-09T10:39:48.963Z,15.39
2019-05-09T10:42:38.080Z,15.51
2019-05-09T10:45:39.936Z,15.49
2019-05-09T10:48:08.403Z,15.49
2019-05-09T10:50:44.749Z,15.51
2019-05-09T10:53:11.985Z,15.63
2019-05-09T10:55:42.716Z,15.58
2019-05-09T10:58:13.382Z,15.45
2019-05-09T11:00:44.549Z,15.59
2019-05-09T11:03:17.908Z,15.78
2019-05-09T11:05:47.873Z,16.05
2019-05-09T11:08:18.760Z,15.97
2019-05-09T11:10:49.547Z,15.95
2019-05-09T11:13:20.685Z,15.94
2019-05-09T11:15:51.532Z,16.09
2019-05-09T11:18:22.300Z,16.30
2019-05-09T11:20:52.895Z,16.46
2019-05-09T11:23:23.549Z,16.09
2019-05-09T11:25:54.159Z,16.26
2019-05-09T11:28:25.044Z,16.53
2019-05-09T11:30:58.318Z,16.67
2019-05-09T11:33:28.444Z,16.44
2019-05-09T11:35:59.171Z,16.46
2019-05-09T11:38:36.593Z,16.40
2019-05-09T11:41:02.851Z,15.79
2019-05-09T11:43:33.591Z,15.68
2019-05-09T11:46:04.472Z,15.57
2019-05-09T11:48:38.021Z,15.28
2019-05-09T11:51:08.968Z,15.42
2019-05-09T11:53:40.248Z,15.35
2019-05-09T11:56:11.134Z,15.71
2019-05-09T11:58:41.920Z,16.02
2019-05-09T12:01:13.690Z,15.97
2019-05-09T12:03:44.617Z,16.10
2019-05-09T12:06:16.181Z,16.37
2019-05-09T12:08:48.287Z,16.39
2019-05-09T12:11:19.573Z,16.76
2019-05-09T12:13:50.220Z,16.69
2019-05-09T12:16:21.081Z,16.69
2019-05-09T12:18:51.815Z,16.57
2019-05-09T12:21:22.558Z,16.38
2019-05-09T12:23:54.378Z,16.23
2019-05-09T12:26:25.068Z,16.17
2019-05-09T12:28:57.784Z,16.15
2019-05-09T12:31:29.114Z,15.97
2019-05-09T12:34:01.052Z,16.19
2019-05-09T12:36:31.746Z,16.01
2019-05-09T12:39:02.546Z,16.01
2019-05-09T12:41:34.542Z,16.07
2019-05-09T12:44:05.437Z,16.09
2019-05-09T12:46:39.435Z,16.15
2019-05-09T12:49:09.161Z,16.25
2019-05-09T12:51:40.117Z,16.50
2019-05-09T12:54:10.780Z,16.41
2019-05-09T12:56:41.461Z,16.41
2019-05-09T12:59:12.328Z,16.52
2019-05-09T13:01:43.213Z,16.46
2019-05-09T13:04:14.146Z,16.44
2019-05-09T13:06:44.942Z,16.50
2019-05-09T13:09:17.778Z,16.53
2019-05-09T13:11:48.478Z,16.45
2019-05-09T13:14:19.696Z,16.43
2019-05-09T13:17:12.436Z,16.30
2019-05-09T13:19:47.961Z,16.33
2019-05-09T13:22:18.557Z,16.35
2019-05-09T13:24:49.405Z,16.20
2019-05-09T13:27:20.103Z,16.22
2019-05-09T13:29:50.968Z,16.23
2019-05-09T13:32:21.670Z,16.09
2019-05-09T13:34:52.333Z,16.18
2019-05-09T13:37:23.138Z,16.38
2019-05-09T13:39:53.905Z,16.42
2019-05-09T13:42:24.719Z,16.44
2019-05-09T13:44:55.537Z,16.33
2019-05-09T13:47:28.023Z,16.46
2019-05-09T13:49:59.264Z,16.33
2019-05-09T13:52:30.206Z,16.44
2019-05-09T13:55:00.836Z,16.58
2019-05-09T13:57:32.529Z,16.58
2019-05-09T14:00:04.299Z,16.64
2019-05-09T14:02:35.001Z,16.63
2019-05-09T14:05:08.781Z,16.60
2019-05-09T14:07:38.551Z,16.60
2019-05-09T14:10:10.382Z,16.47
2019-05-09T14:12:41.044Z,16.57
2019-05-09T14:15:11.606Z,16.46
2019-05-09T14:17:49.801Z,16.37
2019-05-09T14:20:14.566Z,16.63
2019-05-09T14:22:45.407Z,16.81
2019-05-09T14:25:19.204Z,16.92
2019-05-09T14:27:51.670Z,17.12
2019-05-09T14:30:21.245Z,17.22
2019-05-09T14:32:51.852Z,17.33
2019-05-09T14:35:22.627Z,17.31
2019-05-09T14:37:53.566Z,16.93
2019-05-09T14:40:24.401Z,17.05
2019-05-09T14:42:57.664Z,16.91
2019-05-09T14:45:28.125Z,16.75
2019-05-09T14:47:58.920Z,16.64
2019-05-09T14:50:29.822Z,16.60
2019-05-09T14:53:00.717Z,16.38
2019-05-09T14:55:31.398Z,16.42
2019-05-09T14:58:03.105Z,16.35
2019-05-09T15:00:33.772Z,16.30
2019-05-09T15:03:04.720Z,16.24
2019-05-09T15:05:37.801Z,16.39
2019-05-09T15:08:07.959Z,16.37
2019-05-09T15:10:38.688Z,16.54
2019-05-09T15:13:09.610Z,16.61
2019-05-09T15:15:40.467Z,16.49
2019-05-09T15:18:11.400Z,16.47
2019-05-09T15:20:42.272Z,16.43
2019-05-09T15:23:12.957Z,16.43
2019-05-09T15:25:43.742Z,16.48
2019-05-09T15:28:14.584Z,16.52
2019-05-09T15:30:48.714Z,16.58
2019-05-09T15:33:17.795Z,16.52
2019-05-09T15:35:48.858Z,16.66
2019-05-09T15:38:22.402Z,16.86
2019-05-09T15:40:52.038Z,16.81
2019-05-09T15:43:22.809Z,17.01
2019-05-09T15:45:59.145Z,17.43
2019-05-09T15:48:29.883Z,17.42
2019-05-09T15:51:00.671Z,17.59
2019-05-09T15:53:31.458Z,17.62
2019-05-09T15:56:02.348Z,17.71
2019-05-09T15:58:33.048Z,17.60
2019-05-09T16:01:04.027Z,17.43
2019-05-09T16:03:34.785Z,17.34
2019-05-09T16:06:05.580Z,17.08
2019-05-09T16:08:38.172Z,16.81
2019-05-09T16:11:08.931Z,16.76
2019-05-09T16:13:39.636Z,16.50
2019-05-09T16:16:10.407Z,16.31
2019-05-09T16:18:42.911Z,16.39
2019-05-09T16:21:13.960Z,16.27
2019-05-09T16:23:44.755Z,16.34
2019-05-09T16:26:17.975Z,16.63
2019-05-09T16:28:48.782Z,16.74
2019-05-09T16:31:19.790Z,16.99
2019-05-09T16:33:50.613Z,16.99
2019-05-09T16:36:21.373Z,16.94
2019-05-09T16:38:52.133Z,16.75
2019-05-09T16:41:22.937Z,16.59
2019-05-09T16:43:53.692Z,16.34
2019-05-09T16:46:24.545Z,16.12
2019-05-09T16:48:57.961Z,16.13
2019-05-09T16:51:28.680Z,16.08
2019-05-09T16:53:59.609Z,16.23
2019-05-09T16:56:30.474Z,16.01
2019-05-09T16:59:01.271Z,16.07
2019-05-09T17:01:32.116Z,15.85
2019-05-09T17:04:03.969Z,15.93
2019-05-09T17:06:34.814Z,15.80
2019-05-09T17:09:08.423Z,15.79
2019-05-09T17:11:39.240Z,15.86
2019-05-09T17:14:10.249Z,15.67
2019-05-09T17:16:41.351Z,15.55
2019-05-09T17:19:12.229Z,15.56
2019-05-09T17:21:49.096Z,15.25
2019-05-09T17:24:20.189Z,15.29
2019-05-09T17:26:51.067Z,15.22
2019-05-09T17:29:21.960Z,15.14
2019-05-09T17:31:52.801Z,15.02
2019-05-09T17:34:23.781Z,14.98
2019-05-09T17:36:54.640Z,14.92
2019-05-09T17:39:27.643Z,14.89
2019-05-09T17:41:58.403Z,15.03
2019-05-09T17:44:29.222Z,14.86
2019-05-09T17:47:00.122Z,14.85
2019-05-09T17:49:30.973Z,14.80
2019-05-09T17:52:01.653Z,14.99
2019-05-09T17:54:32.580Z,14.87
2019-05-09T17:57:03.733Z,14.83
2019-05-09T17:59:34.563Z,15.00
2019-05-09T18:02:05.316Z,14.68
2019-05-09T18:04:37.870Z,14.57
2019-05-09T18:07:09.019Z,14.58
2019-05-09T18:09:39.878Z,14.57
2019-05-09T18:12:10.681Z,14.53
2019-05-09T18:14:41.463Z,14.64
2019-05-09T18:17:12.349Z,14.69
2019-05-09T18:19:43.108Z,14.63
2019-05-09T18:22:14.071Z,14.62
2019-05-09T18:24:44.962Z,14.65
2019-05-09T18:27:17.963Z,14.57
2019-05-09T18:29:48.182Z,14.59
2019-05-09T18:32:47.703Z,14.64
2019-05-09T18:35:20.917Z,14.69
2019-05-09T18:37:52.000Z,14.57
2019-05-09T18:40:23.019Z,14.49
2019-05-09T18:42:53.812Z,14.41
2019-05-09T18:45:25.196Z,14.26
2019-05-09T18:47:58.075Z,14.25
2019-05-09T18:50:28.554Z,14.29
2019-05-09T18:52:59.431Z,14.08
2019-05-09T18:55:30.235Z,13.99
2019-05-09T18:58:01.149Z,13.93
2019-05-09T19:00:31.975Z,14.01
2019-05-09T19:03:02.939Z,14.13
2019-05-09T19:05:33.876Z,14.11
2019-05-09T19:08:04.857Z,14.08
2019-05-09T19:10:35.652Z,14.10
2019-05-09T19:13:07.313Z,13.93
2019-05-09T19:15:52.518Z,13.72
2019-05-09T19:18:42.500Z,13.73
2019-05-09T19:21:20.066Z,13.79
2019-05-09T19:23:51.021Z,13.71
2019-05-09T19:26:37.718Z,13.83
2019-05-09T19:29:09.589Z,13.88
2019-05-09T19:31:40.788Z,13.87
2019-05-09T19:34:12.158Z,13.59
2019-05-09T19:36:42.997Z,13.75
2019-05-09T19:39:14.272Z,13.69
2019-05-09T19:41:45.045Z,13.49
2019-05-09T19:44:16.029Z,13.51
2019-05-09T19:46:46.959Z,13.45
2019-05-09T19:49:17.854Z,13.59
2019-05-09T19:51:49.452Z,13.39
2019-05-09T19:54:20.337Z,13.28
2019-05-09T19:56:51.568Z,13.39
2019-05-09T19:59:23.889Z,13.40
2019-05-09T20:01:54.712Z,13.33
2019-05-09T20:04:25.613Z,13.27
2019-05-09T20:06:56.562Z,13.30
2019-05-09T20:09:33.529Z,13.37
2019-05-09T20:12:29.632Z,13.43
2019-05-09T20:15:00.877Z,13.40
2019-05-09T20:17:31.817Z,13.46
2019-05-09T20:20:02.769Z,13.36
2019-05-09T20:22:34.473Z,13.59
2019-05-09T20:25:06.004Z,13.33
2019-05-09T20:27:36.790Z,13.33
2019-05-09T20:30:07.969Z,13.36
2019-05-09T20:32:38.914Z,13.45
2019-05-09T20:35:09.889Z,13.34
2019-05-09T20:37:40.946Z,13.38
2019-05-09T20:40:12.498Z,13.40
2019-05-09T20:42:43.638Z,13.34
2019-05-09T20:45:14.833Z,13.41
2019-05-09T20:47:45.784Z,13.56
2019-05-09T20:50:16.862Z,13.47
2019-05-09T20:52:47.952Z,13.41
2019-05-09T20:55:19.012Z,13.48
2019-05-09T20:57:52.085Z,13.44
2019-05-09T21:00:23.004Z,13.51
2019-05-09T21:02:54.044Z,13.49
2019-05-09T21:05:25.028Z,13.39
2019-05-09T21:07:56.245Z,13.41
2019-05-09T21:10:27.207Z,13.41
2019-05-09T21:12:58.150Z,13.44
2019-05-09T21:15:30.253Z,13.49
2019-05-09T21:18:01.044Z,13.57
2019-05-09T21:20:31.979Z,13.47
2019-05-09T21:23:03.003Z,13.35
2019-05-09T21:25:33.888Z,13.37
2019-05-09T21:28:04.826Z,13.45
2019-05-09T21:30:36.715Z,13.38
2019-05-09T21:33:07.698Z,13.52
2019-05-09T21:35:38.477Z,13.39
2019-05-09T21:38:09.398Z,13.41
2019-05-09T21:40:40.228Z,13.32
2019-05-09T21:43:11.094Z,13.40
2019-05-09T21:45:41.769Z,13.39
2019-05-09T21:48:12.570Z,13.38
2019-05-09T21:50:43.534Z,13.39
2019-05-09T21:53:14.200Z,13.41
2019-05-09T21:55:44.984Z,13.33
2019-05-09T21:58:15.776Z,13.43
2019-05-09T22:00:50.876Z,13.50
2019-05-09T22:03:23.365Z,13.43
2019-05-09T22:05:54.286Z,13.34
2019-05-09T22:08:25.996Z,13.47
2019-05-09T22:10:56.881Z,13.43
2019-05-09T22:13:27.786Z,13.46
2019-05-09T22:15:58.737Z,13.43
2019-05-09T22:18:29.570Z,13.24
2019-05-09T22:21:00.651Z,13.35
2019-05-09T22:23:31.437Z,13.30
2019-05-09T22:26:02.193Z,13.30
2019-05-09T22:28:32.947Z,13.39
2019-05-09T22:31:03.969Z,13.34
2019-05-09T22:33:34.780Z,13.32
2019-05-09T22:36:05.658Z,13.30
2019-05-09T22:38:36.463Z,13.11
2019-05-09T22:41:07.400Z,13.08
2019-05-09T22:43:38.351Z,13.08
2019-05-09T22:46:09.072Z,13.00
2019-05-09T22:48:39.841Z,12.79
2019-05-09T22:51:10.752Z,12.85
2019-05-09T22:53:41.736Z,12.83
2019-05-09T22:56:12.589Z,12.76
2019-05-09T22:58:43.320Z,12.70
2019-05-09T23:01:14.941Z,12.69
2019-05-09T23:03:45.712Z,12.68
2019-05-09T23:06:16.451Z,12.60
2019-05-09T23:08:47.409Z,12.52
2019-05-09T23:11:18.213Z,12.47
2019-05-09T23:13:52.434Z,12.40
2019-05-09T23:16:24.778Z,12.37
2019-05-09T23:18:55.990Z,12.35
2019-05-09T23:21:28.256Z,12.33
2019-05-09T23:24:01.750Z,12.34
2019-05-09T23:26:32.596Z,12.26
2019-05-09T23:29:03.445Z,12.18
2019-05-09T23:31:56.309Z,12.12
2019-05-09T23:34:27.072Z,12.16
2019-05-09T23:36:57.884Z,12.04
2019-05-09T23:39:31.645Z,11.93
2019-05-09T23:42:02.350Z,11.91
2019-05-09T23:44:33.257Z,11.82
2019-05-09T23:47:03.972Z,11.82
2019-05-09T23:49:34.836Z,11.80
2019-05-09T23:52:05.830Z,11.79
2019-05-09T23:54:54.319Z,11.79
2019-05-09T23:57:42.968Z,11.81
